Das ist die Wetter- und Hausseite der Bittkau's aus Magdeburg Ottersleben


Hier werden aktuelle Daten aus der privaten Wetterstation und

andere lokale Wettervorhersagen bereitgestellt




Thunder radar more information blitzortung!


Rain radar more information rain snow radar



Extrem niedrige Temperatur Gültig von: 17-11-2018 13:44 bis: 18-11-2018 10:00 Warnung für: Extrem niedrige Temperatur Gefahrenstufe: Gelb info button

METAR-Meldungen aus der Umgebung

   
EBBC - Cochstedt
Aktualisierung: 01.01.1970 1:00
Nicht aktuell
  
  
   Wind: Windstille
Wind: Windstille
EDDP - Leipzig
Aktualisierung: 17.11.2018 8:20
Klar  
Klar  
   Wind: ONO 22.2 km/h
Wind: ONO 22.2 km/h
Temperatur: 1°C
Gefühlt: -4°C
Taupunkt: -2°C
Luftfeuchte: 81%
Luftdruck: 1034 hPa
Sichtbarkeit: More than 10 km
Bewölkung: Klar
EDDP 171920Z 06012KT CAVOK 01/M02 Q1034 NOSIG
EDDC - Dresden
Aktualisierung: 17.11.2018 8:20
Klar  
Klar  
   Wind: ONO 9.3 km/h
Wind: ONO 9.3 km/h
Temperatur: 0°C
Gefühlt: -3°C
Taupunkt: -4°C
Luftfeuchte: 75%
Luftdruck: 1034 hPa
Sichtbarkeit: More than 10 km
Bewölkung: Klar
EDDC 171920Z 06005KT 030V090 CAVOK 00/M04 Q1034 NOSIG
EDDE - Erfurt
Aktualisierung: 17.11.2018 8:20
Teilweise bewölkt  
Teilweise bewölkt  
   Wind: NNO 7.4 km/h
Wind: NNO 7.4 km/h
Temperatur: 0°C
Gefühlt: -3°C
Taupunkt: -1°C
Luftfeuchte: 93%
Luftdruck: 1033 hPa
Bewölkt: Teilweise bewölkt
Sichtbarkeit: 8 km
Bewölkung: Teilweise bewölkt
EDDE 171920Z 03004KT 8000 NSC M00/M01 Q1033 NOSIG
EDVE - Braunschweig
Aktualisierung: 17.11.2018 5:50
Nicht aktuell
Klar  
Klar  
   Wind: Osten 9.3 km/h
Wind: Osten 9.3 km/h
Temperatur: 2°C
Gefühlt: -1°C
Taupunkt: -2°C
Luftfeuchte: 75%
Luftdruck: 1036 hPa
Sichtbarkeit: More than 10 km
Bewölkung: Klar
EDVE 171650Z 09005KT CAVOK 02/M02 Q1036
EDDV - Hannover
Aktualisierung: 17.11.2018 8:20
Klar  
Klar  
   Wind: Osten 14.8 km/h
Wind: Osten 14.8 km/h
Temperatur: 0°C
Gefühlt: -4°C
Taupunkt: -2°C
Luftfeuchte: 87%
Luftdruck: 1035 hPa
Sichtbarkeit: More than 10 km
Bewölkung: Klar
EDDV 171920Z 09008KT CAVOK 00/M02 Q1035 NOSIG
EDDT - Berlin
Aktualisierung: 17.11.2018 8:20
Klar  
Klar  
   Wind: Osten 11.1 km/h
Wind: Osten 11.1 km/h
Temperatur: 0°C
Gefühlt: -3°C
Taupunkt: -3°C
Luftfeuchte: 80%
Luftdruck: 1037 hPa
Sichtbarkeit: More than 10 km
Bewölkung: Klar
EDDT 171920Z 10006KT 070V130 CAVOK 00/M03 Q1037 NOSIG
EDDE - Schwerin
Aktualisierung: 17.11.2018 8:20
Teilweise bewölkt  
Teilweise bewölkt  
   Wind: NNO 7.4 km/h
Wind: NNO 7.4 km/h
Temperatur: 0°C
Gefühlt: -3°C
Taupunkt: -1°C
Luftfeuchte: 93%
Luftdruck: 1033 hPa
Bewölkt: Teilweise bewölkt
Sichtbarkeit: 8 km
Bewölkung: Teilweise bewölkt
EDDE 171920Z 03004KT 8000 NSC M00/M01 Q1033 NOSIG
EDHI - Hamburg
Aktualisierung: 17.11.2018 8:20
  
  
   Wind: Osten 9.3 km/h
Wind: Osten 9.3 km/h
Sichtbarkeit: More than 10 km
EDHI 171920Z AUTO 10005KT 050V140 9999 3000 // FEW230/// 03/M01 Q1036
EDDK - Köln/Bonn
Aktualisierung: 17.11.2018 8:20
Klar  
Klar  
   Wind: OSO 7.4 km/h
Wind: OSO 7.4 km/h
Temperatur: 6°C
Gefühlt: 4°C
Taupunkt: -4°C
Luftfeuchte: 49%
Luftdruck: 1029 hPa
Sichtbarkeit: More than 10 km
Bewölkung: Klar
EDDK 171920Z 11004KT 070V150 CAVOK 06/M04 Q1029 NOSIG
EDHL - Luebeck
Aktualisierung: 17.11.2018 6:50
Nicht aktuell
Klar  
Klar  
   Wind: Osten 7.4 km/h
Wind: Osten 7.4 km/h
Temperatur: 2°C
Gefühlt: 0°C
Taupunkt: 0°C
Luftfeuchte: 87%
Luftdruck: 1038 hPa
Sichtbarkeit: More than 10 km
Bewölkung: Klar
EDHL 171750Z 10004KT 070V130 CAVOK 02/M00 Q1038
 

Script entwickelt von  Saratoga-weather.org Angepasst für das Template von  Weerstation Leuven

Sie finden die Wetterinfo auch auf:

Wetternetzwerk Deutschland

European Weather Network

Weather Underground

Regionalwetter-SA

wetter.com

wxforum.de

Genutzte Hardware, Software und WEB Anbieter:

Wetterstation
Ventus W928-Ultimate

Wetterprogramm
Meteohub

WetterComputer
RaspberryPI

Anbieter
WEB Provider One.com

Ventus W928-Ultimate

Meteohub

RaspberryPI

WEB Provider One.com